sensor_id;sensor_type;location;lat;lon;timestamp;pressure;altitude;pressure_sealevel;temperature;humidity
7407;BME280;3745;56.964;24.128;2024-01-11T00:00:14;101215.09;;;2.97;100.00
7407;BME280;3745;56.964;24.128;2024-01-11T00:02:40;101191.81;;;2.98;100.00
7407;BME280;3745;56.964;24.128;2024-01-11T00:05:06;101176.53;;;2.92;100.00
7407;BME280;3745;56.964;24.128;2024-01-11T00:07:32;101131.56;;;2.59;100.00
7407;BME280;3745;56.964;24.128;2024-01-11T00:09:57;101176.06;;;2.83;100.00
7407;BME280;3745;56.964;24.128;2024-01-11T00:12:23;101184.47;;;2.85;100.00
7407;BME280;3745;56.964;24.128;2024-01-11T00:14:49;101184.63;;;2.88;100.00
7407;BME280;3745;56.964;24.128;2024-01-11T00:17:14;101186.97;;;2.85;100.00
7407;BME280;3745;56.964;24.128;2024-01-11T00:19:41;101180.91;;;2.80;100.00
7407;BME280;3745;56.964;24.128;2024-01-11T00:22:06;101155.06;;;2.63;100.00
7407;BME280;3745;56.964;24.128;2024-01-11T00:24:32;101190.91;;;2.80;100.00
7407;BME280;3745;56.964;24.128;2024-01-11T00:26:57;101115.59;;;2.40;100.00
7407;BME280;3745;56.964;24.128;2024-01-11T00:29:23;101182.28;;;2.74;100.00
7407;BME280;3745;56.964;24.128;2024-01-11T00:31:48;101129.06;;;2.43;100.00
7407;BME280;3745;56.964;24.128;2024-01-11T00:34:14;101146.38;;;2.56;100.00
7407;BME280;3745;56.964;24.128;2024-01-11T00:36:39;101131.25;;;2.53;100.00
7407;BME280;3745;56.964;24.128;2024-01-11T00:39:05;101105.50;;;2.38;100.00
7407;BME280;3745;56.964;24.128;2024-01-11T00:41:30;101150.16;;;2.64;100.00
7407;BME280;3745;56.964;24.128;2024-01-11T00:43:56;101169.19;;;2.79;100.00
7407;BME280;3745;56.964;24.128;2024-01-11T00:46:21;101107.38;;;2.42;100.00
7407;BME280;3745;56.964;24.128;2024-01-11T00:48:47;101165.91;;;2.80;100.00
7407;BME280;3745;56.964;24.128;2024-01-11T00:51:13;101173.47;;;2.81;100.00
7407;BME280;3745;56.964;24.128;2024-01-11T00:53:38;101147.31;;;2.74;100.00
7407;BME280;3745;56.964;24.128;2024-01-11T00:56:04;101126.56;;;2.59;100.00
7407;BME280;3745;56.964;24.128;2024-01-11T00:58:29;101145.47;;;2.70;100.00
7407;BME280;3745;56.964;24.128;2024-01-11T01:00:55;101149.50;;;2.85;100.00
7407;BME280;3745;56.964;24.128;2024-01-11T01:03:21;101157.91;;;2.87;100.00
7407;BME280;3745;56.964;24.128;2024-01-11T01:05:47;101154.66;;;2.88;100.00
7407;BME280;3745;56.964;24.128;2024-01-11T01:08:13;101043.78;;;2.19;100.00
7407;BME280;3745;56.964;24.128;2024-01-11T01:10:40;101156.22;;;2.86;100.00
7407;BME280;3745;56.964;24.128;2024-01-11T01:13:06;101155.81;;;2.94;100.00
7407;BME280;3745;56.964;24.128;2024-01-11T01:15:31;101149.94;;;2.94;100.00
7407;BME280;3745;56.964;24.128;2024-01-11T01:17:57;101127.78;;;2.84;100.00
7407;BME280;3745;56.964;24.128;2024-01-11T01:20:23;101138.38;;;2.96;100.00
7407;BME280;3745;56.964;24.128;2024-01-11T01:22:49;101092.03;;;2.68;100.00
7407;BME280;3745;56.964;24.128;2024-01-11T01:25:15;101107.63;;;2.81;100.00
7407;BME280;3745;56.964;24.128;2024-01-11T01:27:41;101156.69;;;2.95;100.00
7407;BME280;3745;56.964;24.128;2024-01-11T01:30:07;101137.59;;;2.97;100.00
7407;BME280;3745;56.964;24.128;2024-01-11T01:32:34;101137.69;;;2.98;100.00
7407;BME280;3745;56.964;24.128;2024-01-11T01:34:59;101131.97;;;3.01;100.00
7407;BME280;3745;56.964;24.128;2024-01-11T01:37:25;101126.19;;;3.02;100.00
7407;BME280;3745;56.964;24.128;2024-01-11T01:39:51;101097.94;;;2.87;100.00
7407;BME280;3745;56.964;24.128;2024-01-11T01:42:16;101120.41;;;3.03;100.00
7407;BME280;3745;56.964;24.128;2024-01-11T01:44:42;101132.56;;;3.13;100.00
7407;BME280;3745;56.964;24.128;2024-01-11T01:47:08;101108.81;;;3.05;100.00
7407;BME280;3745;56.964;24.128;2024-01-11T01:49:36;101117.84;;;3.19;100.00
7407;BME280;3745;56.964;24.128;2024-01-11T01:52:03;101095.84;;;3.12;100.00
7407;BME280;3745;56.964;24.128;2024-01-11T01:54:32;101088.91;;;3.24;100.00
7407;BME280;3745;56.964;24.128;2024-01-11T01:56:59;101019.97;;;2.76;100.00
7407;BME280;3745;56.964;24.128;2024-01-11T01:59:26;101058.53;;;2.99;100.00
7407;BME280;3745;56.964;24.128;2024-01-11T02:01:52;101055.56;;;3.06;100.00
7407;BME280;3745;56.964;24.128;2024-01-11T02:04:19;101033.09;;;2.90;100.00
7407;BME280;3745;56.964;24.128;2024-01-11T02:06:46;101043.53;;;2.99;100.00
7407;BME280;3745;56.964;24.128;2024-01-11T02:09:13;101062.56;;;3.13;100.00
7407;BME280;3745;56.964;24.128;2024-01-11T02:11:39;101076.28;;;3.21;100.00
7407;BME280;3745;56.964;24.128;2024-01-11T02:14:07;101109.00;;;3.43;100.00
7407;BME280;3745;56.964;24.128;2024-01-11T02:16:32;101100.59;;;3.41;100.00
7407;BME280;3745;56.964;24.128;2024-01-11T02:18:58;101027.00;;;3.01;100.00
7407;BME280;3745;56.964;24.128;2024-01-11T02:21:24;101097.13;;;3.39;100.00
7407;BME280;3745;56.964;24.128;2024-01-11T02:24:06;101098.16;;;3.43;100.00
7407;BME280;3745;56.964;24.128;2024-01-11T02:26:32;101081.69;;;3.30;100.00
7407;BME280;3745;56.964;24.128;2024-01-11T02:28:58;101095.03;;;3.29;100.00
7407;BME280;3745;56.964;24.128;2024-01-11T02:31:24;101098.09;;;3.41;100.00
7407;BME280;3745;56.964;24.128;2024-01-11T02:33:51;101064.91;;;3.27;100.00
7407;BME280;3745;56.964;24.128;2024-01-11T02:36:17;101088.84;;;3.40;100.00
7407;BME280;3745;56.964;24.128;2024-01-11T02:38:44;101080.72;;;3.44;100.00
7407;BME280;3745;56.964;24.128;2024-01-11T02:41:10;101079.13;;;3.46;100.00
7407;BME280;3745;56.964;24.128;2024-01-11T02:43:36;101077.56;;;3.48;100.00
7407;BME280;3745;56.964;24.128;2024-01-11T02:46:03;101066.00;;;3.50;100.00
7407;BME280;3745;56.964;24.128;2024-01-11T02:48:31;101101.16;;;3.53;100.00
7407;BME280;3745;56.964;24.128;2024-01-11T02:50:57;101069.56;;;3.55;100.00
7407;BME280;3745;56.964;24.128;2024-01-11T02:53:23;101057.81;;;3.54;100.00
7407;BME280;3745;56.964;24.128;2024-01-11T02:55:50;101053.53;;;3.52;100.00
7407;BME280;3745;56.964;24.128;2024-01-11T02:58:15;101007.53;;;3.31;100.00
7407;BME280;3745;56.964;24.128;2024-01-11T03:00:41;101055.59;;;3.60;100.00
7407;BME280;3745;56.964;24.128;2024-01-11T03:03:07;101003.41;;;3.31;100.00
7407;BME280;3745;56.964;24.128;2024-01-11T03:05:32;100970.97;;;3.15;100.00
7407;BME280;3745;56.964;24.128;2024-01-11T03:07:58;101030.97;;;3.50;100.00
7407;BME280;3745;56.964;24.128;2024-01-11T03:10:23;101039.38;;;3.52;100.00
7407;BME280;3745;56.964;24.128;2024-01-11T03:12:49;100999.41;;;3.35;100.00
7407;BME280;3745;56.964;24.128;2024-01-11T03:15:15;101032.66;;;3.51;100.00
7407;BME280;3745;56.964;24.128;2024-01-11T03:17:41;101034.66;;;3.58;100.00
7407;BME280;3745;56.964;24.128;2024-01-11T03:20:07;101005.41;;;3.38;100.00
7407;BME280;3745;56.964;24.128;2024-01-11T03:22:33;101034.66;;;3.58;100.00
7407;BME280;3745;56.964;24.128;2024-01-11T03:24:59;101031.09;;;3.53;100.00
7407;BME280;3745;56.964;24.128;2024-01-11T03:27:25;101037.81;;;3.54;100.00
7407;BME280;3745;56.964;24.128;2024-01-11T03:29:50;101022.00;;;3.55;100.00
7407;BME280;3745;56.964;24.128;2024-01-11T03:32:16;101014.97;;;3.47;100.00
7407;BME280;3745;56.964;24.128;2024-01-11T03:34:42;101026.09;;;3.53;100.00
7407;BME280;3745;56.964;24.128;2024-01-11T03:37:08;101006.59;;;3.46;100.00
7407;BME280;3745;56.964;24.128;2024-01-11T03:39:34;101015.81;;;3.47;100.00
7407;BME280;3745;56.964;24.128;2024-01-11T03:42:00;101015.69;;;3.44;100.00
7407;BME280;3745;56.964;24.128;2024-01-11T03:44:25;101025.75;;;3.46;100.00
7407;BME280;3745;56.964;24.128;2024-01-11T03:46:51;101021.53;;;3.45;100.00
7407;BME280;3745;56.964;24.128;2024-01-11T03:49:17;100998.84;;;3.22;100.00
7407;BME280;3745;56.964;24.128;2024-01-11T03:51:43;101003.25;;;3.28;100.00
7407;BME280;3745;56.964;24.128;2024-01-11T03:54:09;101017.25;;;3.42;100.00
7407;BME280;3745;56.964;24.128;2024-01-11T03:56:38;101015.53;;;3.41;100.00
7407;BME280;3745;56.964;24.128;2024-01-11T03:59:04;101019.88;;;3.45;100.00
7407;BME280;3745;56.964;24.128;2024-01-11T04:01:31;101013.19;;;3.44;100.00
7407;BME280;3745;56.964;24.128;2024-01-11T04:03:57;101004.09;;;3.46;100.00
7407;BME280;3745;56.964;24.128;2024-01-11T04:06:22;101007.38;;;3.45;100.00
7407;BME280;3745;56.964;24.128;2024-01-11T04:08:50;101015.81;;;3.47;100.00
7407;BME280;3745;56.964;24.128;2024-01-11T04:11:17;100960.25;;;3.17;100.00
7407;BME280;3745;56.964;24.128;2024-01-11T04:13:43;101005.53;;;3.41;100.00
7407;BME280;3745;56.964;24.128;2024-01-11T04:16:09;101008.22;;;3.46;100.00
7407;BME280;3745;56.964;24.128;2024-01-11T04:18:34;100943.84;;;3.05;100.00
7407;BME280;3745;56.964;24.128;2024-01-11T04:21:00;100967.84;;;3.19;100.00
7407;BME280;3745;56.964;24.128;2024-01-11T04:23:26;100992.09;;;3.39;100.00
7407;BME280;3745;56.964;24.128;2024-01-11T04:25:51;101000.53;;;3.41;100.00
7407;BME280;3745;56.964;24.128;2024-01-11T04:28:17;100968.84;;;3.22;100.00
7407;BME280;3745;56.964;24.128;2024-01-11T04:30:43;100945.69;;;3.09;100.00
7407;BME280;3745;56.964;24.128;2024-01-11T04:33:09;100985.13;;;3.32;100.00
7407;BME280;3745;56.964;24.128;2024-01-11T04:35:35;100947.44;;;3.10;100.00
7407;BME280;3745;56.964;24.128;2024-01-11T04:38:01;100988.25;;;3.28;100.00
7407;BME280;3745;56.964;24.128;2024-01-11T04:40:27;100996.53;;;3.27;100.00
7407;BME280;3745;56.964;24.128;2024-01-11T04:42:52;100989.84;;;3.26;100.00
7407;BME280;3745;56.964;24.128;2024-01-11T04:45:18;100964.94;;;3.10;100.00
7407;BME280;3745;56.964;24.128;2024-01-11T04:47:43;100979.63;;;3.21;100.00
7407;BME280;3745;56.964;24.128;2024-01-11T04:50:09;100952.00;;;3.01;100.00
7407;BME280;3745;56.964;24.128;2024-01-11T04:52:35;100976.13;;;3.18;100.00
7407;BME280;3745;56.964;24.128;2024-01-11T04:55:01;100958.69;;;3.02;100.00
7407;BME280;3745;56.964;24.128;2024-01-11T04:57:27;100976.25;;;3.21;100.00
7407;BME280;3745;56.964;24.128;2024-01-11T04:59:52;100973.72;;;3.19;100.00
7407;BME280;3745;56.964;24.128;2024-01-11T05:02:20;100919.47;;;2.82;100.00
7407;BME280;3745;56.964;24.128;2024-01-11T05:04:47;100952.66;;;2.97;100.00
7407;BME280;3745;56.964;24.128;2024-01-11T05:07:13;100974.13;;;3.11;100.00
7407;BME280;3745;56.964;24.128;2024-01-11T05:09:38;100963.84;;;3.05;100.00
7407;BME280;3745;56.964;24.128;2024-01-11T05:12:05;100975.41;;;3.03;100.00
7407;BME280;3745;56.964;24.128;2024-01-11T05:14:31;100978.56;;;2.99;100.00
7407;BME280;3745;56.964;24.128;2024-01-11T05:16:57;100929.03;;;2.72;100.00
7407;BME280;3745;56.964;24.128;2024-01-11T05:19:23;100911.03;;;2.62;100.00
7407;BME280;3745;56.964;24.128;2024-01-11T05:21:48;100947.09;;;2.85;100.00
7407;BME280;3745;56.964;24.128;2024-01-11T05:24:14;100961.59;;;2.92;100.00
7407;BME280;3745;56.964;24.128;2024-01-11T05:26:39;100965.63;;;2.90;100.00
7407;BME280;3745;56.964;24.128;2024-01-11T05:29:05;100968.94;;;2.89;100.00
7407;BME280;3745;56.964;24.128;2024-01-11T05:31:30;100960.56;;;2.88;100.00
7407;BME280;3745;56.964;24.128;2024-01-11T05:33:56;100860.94;;;2.24;100.00
7407;BME280;3745;56.964;24.128;2024-01-11T05:36:21;100961.03;;;2.80;100.00
7407;BME280;3745;56.964;24.128;2024-01-11T05:38:47;100968.00;;;2.87;100.00
7407;BME280;3745;56.964;24.128;2024-01-11T05:41:13;100921.59;;;2.56;100.00
7407;BME280;3745;56.964;24.128;2024-01-11T05:43:40;100981.44;;;2.89;100.00
7407;BME280;3745;56.964;24.128;2024-01-11T05:46:06;100987.22;;;2.88;100.00
7407;BME280;3745;56.964;24.128;2024-01-11T05:48:32;100974.00;;;2.72;100.00
7407;BME280;3745;56.964;24.128;2024-01-11T05:50:58;101001.28;;;2.86;100.00
7407;BME280;3745;56.964;24.128;2024-01-11T05:53:25;100972.84;;;2.66;100.00
7407;BME280;3745;56.964;24.128;2024-01-11T05:55:52;101014.84;;;2.91;100.00
7407;BME280;3745;56.964;24.128;2024-01-11T05:58:18;101014.69;;;2.88;100.00
7407;BME280;3745;56.964;24.128;2024-01-11T06:00:43;101011.28;;;2.86;100.00
7407;BME280;3745;56.964;24.128;2024-01-11T06:03:12;101022.97;;;2.87;100.00
7407;BME280;3745;56.964;24.128;2024-01-11T06:05:37;101011.00;;;2.80;100.00
7407;BME280;3745;56.964;24.128;2024-01-11T06:08:03;101018.53;;;2.81;100.00
7407;BME280;3745;56.964;24.128;2024-01-11T06:10:29;101008.69;;;2.66;100.00
7407;BME280;3745;56.964;24.128;2024-01-11T06:12:56;100984.50;;;2.49;100.00
7407;BME280;3745;56.964;24.128;2024-01-11T06:15:22;101028.81;;;2.69;100.00
7407;BME280;3745;56.964;24.128;2024-01-11T06:17:47;101013.69;;;2.66;100.00
7407;BME280;3745;56.964;24.128;2024-01-11T06:20:13;101021.78;;;2.62;100.00
7407;BME280;3745;56.964;24.128;2024-01-11T06:22:39;101014.34;;;2.46;100.00
7407;BME280;3745;56.964;24.128;2024-01-11T06:25:04;101043.34;;;2.60;100.00
7407;BME280;3745;56.964;24.128;2024-01-11T06:27:30;101036.19;;;2.50;100.00
7407;BME280;3745;56.964;24.128;2024-01-11T06:29:56;101041.47;;;2.56;100.00
7407;BME280;3745;56.964;24.128;2024-01-11T06:32:21;101040.41;;;2.51;100.00
7407;BME280;3745;56.964;24.128;2024-01-11T06:34:47;101048.34;;;2.60;100.00
7407;BME280;3745;56.964;24.128;2024-01-11T06:37:13;101044.28;;;2.62;100.00
7407;BME280;3745;56.964;24.128;2024-01-11T06:39:38;101048.66;;;2.66;100.00
7407;BME280;3745;56.964;24.128;2024-01-11T06:42:04;101048.19;;;2.73;100.00
7407;BME280;3745;56.964;24.128;2024-01-11T06:44:30;101047.38;;;2.74;100.00
7407;BME280;3745;56.964;24.128;2024-01-11T06:46:56;101038.94;;;2.72;100.00
7407;BME280;3745;56.964;24.128;2024-01-11T06:49:21;101052.50;;;2.78;100.00
7407;BME280;3745;56.964;24.128;2024-01-11T06:51:47;101045.81;;;2.77;100.00
7407;BME280;3745;56.964;24.128;2024-01-11T06:54:12;101079.22;;;2.79;100.00
7407;BME280;3745;56.964;24.128;2024-01-11T06:56:38;101064.38;;;2.82;100.00
7407;BME280;3745;56.964;24.128;2024-01-11T06:59:03;100985.50;;;2.35;100.00
7407;BME280;3745;56.964;24.128;2024-01-11T07:01:29;101054.25;;;2.79;100.00
7407;BME280;3745;56.964;24.128;2024-01-11T07:03:55;101054.25;;;2.79;100.00
7407;BME280;3745;56.964;24.128;2024-01-11T07:06:20;101060.97;;;2.80;100.00
7407;BME280;3745;56.964;24.128;2024-01-11T07:08:46;101066.88;;;2.82;100.00
7407;BME280;3745;56.964;24.128;2024-01-11T07:11:12;101053.94;;;2.72;100.00
7407;BME280;3745;56.964;24.128;2024-01-11T07:13:37;100988.00;;;2.19;100.00
7407;BME280;3745;56.964;24.128;2024-01-11T07:16:05;101041.19;;;2.50;100.00
7407;BME280;3745;56.964;24.128;2024-01-11T07:18:31;101068.03;;;2.54;100.00
7407;BME280;3745;56.964;24.128;2024-01-11T07:20:57;101082.56;;;2.61;100.00
7407;BME280;3745;56.964;24.128;2024-01-11T07:23:23;101007.81;;;2.16;100.00
7407;BME280;3745;56.964;24.128;2024-01-11T07:25:49;101086.75;;;2.62;100.00
7407;BME280;3745;56.964;24.128;2024-01-11T07:28:15;101005.97;;;2.12;100.00
7407;BME280;3745;56.964;24.128;2024-01-11T07:30:42;101096.44;;;2.56;100.00
7407;BME280;3745;56.964;24.128;2024-01-11T07:33:08;101094.72;;;2.55;100.00
7407;BME280;3745;56.964;24.128;2024-01-11T07:35:34;101104.53;;;2.52;100.00
7407;BME280;3745;56.964;24.128;2024-01-11T07:38:00;101030.94;;;2.12;100.00
7407;BME280;3745;56.964;24.128;2024-01-11T07:40:26;101080.22;;;2.32;100.00
7407;BME280;3745;56.964;24.128;2024-01-11T07:42:52;101095.44;;;2.37;100.00
7407;BME280;3745;56.964;24.128;2024-01-11T07:45:18;101093.78;;;2.37;100.00
7407;BME280;3745;56.964;24.128;2024-01-11T07:47:44;101107.44;;;2.44;100.00
7407;BME280;3745;56.964;24.128;2024-01-11T07:50:10;101114.69;;;2.55;100.00
7407;BME280;3745;56.964;24.128;2024-01-11T07:52:36;101099.25;;;2.46;100.00
7407;BME280;3745;56.964;24.128;2024-01-11T07:55:07;101121.56;;;2.59;100.00
7407;BME280;3745;56.964;24.128;2024-01-11T07:57:37;101094.09;;;2.43;100.00
7407;BME280;3745;56.964;24.128;2024-01-11T08:00:05;101106.28;;;2.53;100.00
7407;BME280;3745;56.964;24.128;2024-01-11T08:02:34;101125.19;;;2.48;100.00
7407;BME280;3745;56.964;24.128;2024-01-11T08:05:00;101108.63;;;2.34;100.00
7407;BME280;3745;56.964;24.128;2024-01-11T08:07:29;101140.63;;;2.41;100.00
7407;BME280;3745;56.964;24.128;2024-01-11T08:09:55;101070.09;;;1.97;100.00
7407;BME280;3745;56.964;24.128;2024-01-11T08:12:21;101142.19;;;2.39;100.00
7407;BME280;3745;56.964;24.128;2024-01-11T08:14:47;101143.88;;;2.40;100.00
7407;BME280;3745;56.964;24.128;2024-01-11T08:17:14;101139.03;;;2.43;100.00
7407;BME280;3745;56.964;24.128;2024-01-11T08:19:40;101138.88;;;2.40;100.00
7407;BME280;3745;56.964;24.128;2024-01-11T08:22:08;101131.25;;;2.37;100.00
7407;BME280;3745;56.964;24.128;2024-01-11T08:24:34;101108.00;;;2.22;100.00
7407;BME280;3745;56.964;24.128;2024-01-11T08:27:00;101117.38;;;2.42;100.00
7407;BME280;3745;56.964;24.128;2024-01-11T08:29:26;101076.91;;;2.65;100.00
7407;BME280;3745;56.964;24.128;2024-01-11T08:31:54;101148.97;;;3.08;100.00
7407;BME280;3745;56.964;24.128;2024-01-11T08:34:21;101081.56;;;2.42;100.00
7407;BME280;3745;56.964;24.128;2024-01-11T08:36:46;101161.84;;;2.65;100.00
7407;BME280;3745;56.964;24.128;2024-01-11T08:39:17;101165.59;;;2.57;100.00
7407;BME280;3745;56.964;24.128;2024-01-11T08:41:42;101030.38;;;1.69;100.00
7407;BME280;3745;56.964;24.128;2024-01-11T08:44:09;101179.66;;;2.39;100.00
7407;BME280;3745;56.964;24.128;2024-01-11T08:46:35;101182.69;;;2.34;100.00
7407;BME280;3745;56.964;24.128;2024-01-11T08:49:01;101193.66;;;2.37;100.00
7407;BME280;3745;56.964;24.128;2024-01-11T08:51:32;101094.22;;;1.82;100.00
7407;BME280;3745;56.964;24.128;2024-01-11T08:53:58;101225.19;;;2.35;100.00
7407;BME280;3745;56.964;24.128;2024-01-11T08:56:24;101186.81;;;2.33;100.00
7407;BME280;3745;56.964;24.128;2024-01-11T08:58:49;101169.47;;;2.20;100.00
7407;BME280;3745;56.964;24.128;2024-01-11T09:01:16;101188.19;;;2.28;100.00
7407;BME280;3745;56.964;24.128;2024-01-11T09:03:41;101145.78;;;1.97;100.00
7407;BME280;3745;56.964;24.128;2024-01-11T09:06:07;101206.47;;;2.27;100.00
7407;BME280;3745;56.964;24.128;2024-01-11T09:08:33;101208.16;;;2.28;100.00
7407;BME280;3745;56.964;24.128;2024-01-11T09:10:59;101208.81;;;2.24;100.00
7407;BME280;3745;56.964;24.128;2024-01-11T09:13:26;101201.31;;;2.24;100.00
7407;BME280;3745;56.964;24.128;2024-01-11T09:15:52;101204.59;;;2.23;100.00
7407;BME280;3745;56.964;24.128;2024-01-11T09:18:20;101211.31;;;2.24;100.00
7407;BME280;3745;56.964;24.128;2024-01-11T09:20:46;101204.59;;;2.23;100.00
7407;BME280;3745;56.964;24.128;2024-01-11T09:23:12;101210.97;;;2.18;100.00
7407;BME280;3745;56.964;24.128;2024-01-11T09:25:38;101224.56;;;2.23;100.00
7407;BME280;3745;56.964;24.128;2024-01-11T09:28:05;101189.34;;;2.02;100.00
7407;BME280;3745;56.964;24.128;2024-01-11T09:30:32;101087.97;;;1.43;100.00
7407;BME280;3745;56.964;24.128;2024-01-11T09:32:59;101190.38;;;2.06;100.00
7407;BME280;3745;56.964;24.128;2024-01-11T09:35:25;101217.34;;;2.13;100.00
7407;BME280;3745;56.964;24.128;2024-01-11T09:37:51;101187.81;;;1.90;100.00
7407;BME280;3745;56.964;24.128;2024-01-11T09:40:18;101158.03;;;1.62;100.00
7407;BME280;3745;56.964;24.128;2024-01-11T09:42:45;101221.34;;;1.95;100.00
7407;BME280;3745;56.964;24.128;2024-01-11T09:45:17;101196.25;;;1.77;100.00
7407;BME280;3745;56.964;24.128;2024-01-11T09:47:44;101159.84;;;1.50;100.00
7407;BME280;3745;56.964;24.128;2024-01-11T09:50:17;101177.09;;;1.61;100.00
7407;BME280;3745;56.964;24.128;2024-01-11T09:52:47;101219.44;;;1.91;100.00
7407;BME280;3745;56.964;24.128;2024-01-11T09:55:17;101183.34;;;1.70;100.00
7407;BME280;3745;56.964;24.128;2024-01-11T09:57:47;101182.59;;;1.71;100.00
7407;BME280;3745;56.964;24.128;2024-01-11T10:00:22;101239.25;;;1.88;100.00
7407;BME280;3745;56.964;24.128;2024-01-11T10:02:48;101228.22;;;1.99;100.00
7407;BME280;3745;56.964;24.128;2024-01-11T10:05:18;101218.94;;;1.82;100.00
7407;BME280;3745;56.964;24.128;2024-01-11T10:07:44;101166.03;;;1.56;100.00
7407;BME280;3745;56.964;24.128;2024-01-11T10:10:11;101201.66;;;1.85;100.00
7407;BME280;3745;56.964;24.128;2024-01-11T10:12:40;101233.94;;;1.96;100.00
7407;BME280;3745;56.964;24.128;2024-01-11T10:15:08;101259.44;;;2.07;100.00
7407;BME280;3745;56.964;24.128;2024-01-11T10:17:44;101239.78;;;1.97;100.00
7407;BME280;3745;56.964;24.128;2024-01-11T10:20:12;101247.19;;;1.81;100.00
7407;BME280;3745;56.964;24.128;2024-01-11T10:22:40;101234.63;;;1.94;100.00
7407;BME280;3745;56.964;24.128;2024-01-11T10:25:14;101293.47;;;1.90;100.00
7407;BME280;3745;56.964;24.128;2024-01-11T10:27:41;101266.47;;;1.69;100.00
7407;BME280;3745;56.964;24.128;2024-01-11T10:30:08;101288.13;;;1.70;100.00
7407;BME280;3745;56.964;24.128;2024-01-11T10:32:34;101297.84;;;1.80;100.00
7407;BME280;3745;56.964;24.128;2024-01-11T10:35:03;101257.16;;;1.51;100.00
7407;BME280;3745;56.964;24.128;2024-01-11T10:37:31;101301.91;;;1.78;100.00
7407;BME280;3745;56.964;24.128;2024-01-11T10:40:01;101276.00;;;1.61;100.00
7407;BME280;3745;56.964;24.128;2024-01-11T10:42:32;101316.69;;;1.75;100.00
7407;BME280;3745;56.964;24.128;2024-01-11T10:45:01;101187.13;;;0.90;100.00
7407;BME280;3745;56.964;24.128;2024-01-11T10:47:30;101205.81;;;1.11;100.00
7407;BME280;3745;56.964;24.128;2024-01-11T10:49:57;101271.94;;;1.48;100.00
7407;BME280;3745;56.964;24.128;2024-01-11T10:52:28;101291.94;;;1.63;100.00
7407;BME280;3745;56.964;24.128;2024-01-11T10:54:57;101312.22;;;1.84;100.00
7407;BME280;3745;56.964;24.128;2024-01-11T10:57:25;101289.84;;;1.71;100.00
7407;BME280;3745;56.964;24.128;2024-01-11T10:59:52;101305.00;;;1.74;100.00
7407;BME280;3745;56.964;24.128;2024-01-11T11:02:21;101286.72;;;1.45;100.00
7407;BME280;3745;56.964;24.128;2024-01-11T11:04:49;101299.91;;;1.57;100.00
7407;BME280;3745;56.964;24.128;2024-01-11T11:07:16;101338.47;;;1.77;100.00
7407;BME280;3745;56.964;24.128;2024-01-11T11:09:44;101330.78;;;1.59;100.00
7407;BME280;3745;56.964;24.128;2024-01-11T11:12:11;101275.00;;;1.15;100.00
7407;BME280;3745;56.964;24.128;2024-01-11T11:14:40;101349.38;;;1.64;100.00
7407;BME280;3745;56.964;24.128;2024-01-11T11:17:06;101359.34;;;1.64;100.00
7407;BME280;3745;56.964;24.128;2024-01-11T11:19:32;101206.81;;;0.58;100.00
7407;BME280;3745;56.964;24.128;2024-01-11T11:21:58;101273.91;;;0.97;100.00
7407;BME280;3745;56.964;24.128;2024-01-11T11:24:23;101360.00;;;1.47;100.00
7407;BME280;3745;56.964;24.128;2024-01-11T11:26:49;101354.94;;;1.18;100.00
7407;BME280;3745;56.964;24.128;2024-01-11T11:29:15;101354.84;;;0.63;100.00
7407;BME280;3745;56.964;24.128;2024-01-11T11:31:43;101376.50;;;0.64;100.00
7407;BME280;3745;56.964;24.128;2024-01-11T11:34:13;101390.28;;;0.72;100.00
7407;BME280;3745;56.964;24.128;2024-01-11T11:36:40;101367.69;;;0.55;100.00
7407;BME280;3745;56.964;24.128;2024-01-11T11:39:11;101380.91;;;0.54;100.00
7407;BME280;3745;56.964;24.128;2024-01-11T11:41:39;101377.81;;;0.59;100.00
7407;BME280;3745;56.964;24.128;2024-01-11T11:44:05;101408.13;;;0.65;100.00
7407;BME280;3745;56.964;24.128;2024-01-11T11:46:34;101402.53;;;0.55;100.00
7407;BME280;3745;56.964;24.128;2024-01-11T11:49:00;101423.81;;;0.64;100.00
7407;BME280;3745;56.964;24.128;2024-01-11T11:51:25;101435.88;;;0.58;100.00
7407;BME280;3745;56.964;24.128;2024-01-11T11:53:52;101417.09;;;0.49;100.00
7407;BME280;3745;56.964;24.128;2024-01-11T11:56:22;101414.59;;;0.36;100.00
7407;BME280;3745;56.964;24.128;2024-01-11T11:58:48;101438.53;;;0.47;100.00
7407;BME280;3745;56.964;24.128;2024-01-11T12:01:20;101433.38;;;0.44;100.00
7407;BME280;3745;56.964;24.128;2024-01-11T12:03:46;101437.97;;;0.51;100.00
7407;BME280;3745;56.964;24.128;2024-01-11T12:06:18;101454.06;;;0.57;100.00
7407;BME280;3745;56.964;24.128;2024-01-11T12:08:45;101452.53;;;0.45;100.00
7407;BME280;3745;56.964;24.128;2024-01-11T12:11:17;101455.31;;;0.37;100.00
7407;BME280;3745;56.964;24.128;2024-01-11T12:13:46;101460.91;;;0.34;100.00
7407;BME280;3745;56.964;24.128;2024-01-11T12:16:12;101473.28;;;0.33;100.00
7407;BME280;3745;56.964;24.128;2024-01-11T12:18:37;101453.25;;;0.18;100.00
7407;BME280;3745;56.964;24.128;2024-01-11T12:21:03;101494.06;;;0.33;100.00
7407;BME280;3745;56.964;24.128;2024-01-11T12:23:29;101498.25;;;0.21;100.00
7407;BME280;3745;56.964;24.128;2024-01-11T12:25:56;101498.19;;;0.08;100.00
7407;BME280;3745;56.964;24.128;2024-01-11T12:28:23;101503.91;;;0.07;100.00
7407;BME280;3745;56.964;24.128;2024-01-11T12:30:49;101480.16;;;-0.01;100.00
7407;BME280;3745;56.964;24.128;2024-01-11T12:33:16;101503.72;;;0.04;100.00
7407;BME280;3745;56.964;24.128;2024-01-11T12:35:42;101460.16;;;-0.27;100.00
7407;BME280;3745;56.964;24.128;2024-01-11T12:38:07;101472.91;;;-0.23;100.00
7407;BME280;3745;56.964;24.128;2024-01-11T12:40:35;101522.59;;;-0.11;100.00
7407;BME280;3745;56.964;24.128;2024-01-11T12:43:05;101510.34;;;-0.08;100.00
7407;BME280;3745;56.964;24.128;2024-01-11T12:45:32;101527.56;;;-0.11;100.00
7407;BME280;3745;56.964;24.128;2024-01-11T12:47:59;101389.25;;;-0.95;100.00
7407;BME280;3745;56.964;24.128;2024-01-11T12:50:26;101528.28;;;-0.25;100.00
7407;BME280;3745;56.964;24.128;2024-01-11T12:53:13;101506.00;;;-0.35;100.00
7407;BME280;3745;56.964;24.128;2024-01-11T12:56:06;101551.81;;;-0.20;100.00